createdAt,value
2018-09-16T00:00:00.670Z,14.87
2018-09-16T00:01:00.651Z,14.78
2018-09-16T00:02:00.645Z,14.74
2018-09-16T00:03:00.617Z,14.71
2018-09-16T00:04:00.599Z,14.67
2018-09-16T00:05:00.684Z,14.70
2018-09-16T00:06:00.565Z,14.78
2018-09-16T00:07:00.548Z,14.73
2018-09-16T00:08:00.546Z,14.74
2018-09-16T00:09:00.524Z,14.77
2018-09-16T00:10:00.497Z,14.71
2018-09-16T00:11:00.480Z,14.67
2018-09-16T00:12:00.460Z,14.58
2018-09-16T00:13:00.445Z,14.70
2018-09-16T00:14:00.425Z,14.55
2018-09-16T00:15:00.416Z,14.58
2018-09-16T00:16:00.430Z,14.59
2018-09-16T00:17:00.374Z,14.59
2018-09-16T00:18:00.356Z,14.58
2018-09-16T00:19:00.354Z,14.56
2018-09-16T00:20:00.323Z,14.56
2018-09-16T00:21:00.308Z,14.61
2018-09-16T00:22:00.298Z,14.62
2018-09-16T00:23:00.272Z,14.51
2018-09-16T00:24:00.261Z,14.62
2018-09-16T00:25:00.235Z,14.48
2018-09-16T00:26:00.215Z,14.49
2018-09-16T00:27:00.272Z,14.51
2018-09-16T00:28:00.190Z,14.48
2018-09-16T00:29:00.166Z,14.49
2018-09-16T00:30:00.149Z,14.52
2018-09-16T00:31:00.129Z,14.58
2018-09-16T00:32:00.113Z,14.53
2018-09-16T00:33:00.094Z,14.44
2018-09-16T00:34:00.089Z,14.51
2018-09-16T00:35:00.059Z,14.52
2018-09-16T00:36:00.052Z,14.56
2018-09-16T00:37:00.026Z,14.48
2018-09-16T00:38:00.105Z,14.48
2018-09-16T00:38:59.987Z,14.48
2018-09-16T00:39:59.973Z,14.52
2018-09-16T00:40:59.963Z,14.51
2018-09-16T00:41:59.936Z,14.59
2018-09-16T00:42:59.919Z,14.53
2018-09-16T00:43:59.908Z,14.49
2018-09-16T00:44:59.890Z,14.49
2018-09-16T00:45:59.865Z,14.49
2018-09-16T00:46:59.848Z,14.49
2018-09-16T00:47:59.839Z,14.49
2018-09-16T00:48:59.816Z,14.51
2018-09-16T00:49:59.799Z,14.56
2018-09-16T00:50:59.790Z,14.44
2018-09-16T00:51:59.763Z,14.41
2018-09-16T00:52:59.746Z,14.43
2018-09-16T00:53:59.768Z,14.41
2018-09-16T00:54:59.712Z,14.41
2018-09-16T00:55:59.693Z,14.38
2018-09-16T00:56:59.778Z,14.44
2018-09-16T00:57:59.657Z,14.51
2018-09-16T00:58:59.645Z,14.44
2018-09-16T00:59:59.620Z,14.41
2018-09-16T01:00:59.603Z,14.44
2018-09-16T01:01:59.593Z,14.49
2018-09-16T01:02:59.583Z,14.45
2018-09-16T01:03:59.549Z,14.43
2018-09-16T01:04:59.535Z,14.45
2018-09-16T01:05:59.514Z,14.43
2018-09-16T01:06:59.496Z,14.43
2018-09-16T01:07:59.478Z,14.41
2018-09-16T01:08:59.471Z,14.44
2018-09-16T01:09:59.449Z,14.52
2018-09-16T01:10:59.425Z,14.56
2018-09-16T01:11:59.411Z,14.51
2018-09-16T01:12:59.393Z,14.52
2018-09-16T01:13:59.377Z,14.53
2018-09-16T01:14:59.366Z,14.52
2018-09-16T01:15:59.339Z,14.43
2018-09-16T01:16:59.321Z,14.44
2018-09-16T01:17:59.303Z,14.41
2018-09-16T01:18:59.288Z,14.40
2018-09-16T01:19:59.270Z,14.38
2018-09-16T01:20:59.255Z,14.40
2018-09-16T01:21:59.232Z,14.40
2018-09-16T01:22:59.214Z,14.40
2018-09-16T01:23:59.198Z,14.48
2018-09-16T01:24:59.181Z,14.41
2018-09-16T01:25:59.163Z,14.34
2018-09-16T01:26:59.141Z,14.37
2018-09-16T01:27:59.128Z,14.33
2018-09-16T01:28:59.109Z,14.28
2018-09-16T01:29:59.090Z,14.20
2018-09-16T01:30:59.073Z,14.22
2018-09-16T01:31:59.058Z,14.23
2018-09-16T01:32:59.038Z,14.16
2018-09-16T01:33:59.021Z,14.12
2018-09-16T01:34:59.005Z,14.15
2018-09-16T01:35:58.984Z,14.28
2018-09-16T01:36:58.985Z,14.26
2018-09-16T01:37:58.955Z,14.23
2018-09-16T01:38:58.934Z,14.19
2018-09-16T01:39:59.072Z,14.23
2018-09-16T01:40:58.893Z,14.25
2018-09-16T01:41:58.874Z,14.20
2018-09-16T01:42:58.858Z,14.20
2018-09-16T01:43:58.839Z,14.25
2018-09-16T01:44:58.829Z,14.19
2018-09-16T01:45:58.806Z,14.15
2018-09-16T01:46:58.790Z,14.18
2018-09-16T01:47:58.771Z,14.12
2018-09-16T01:48:58.751Z,14.04
2018-09-16T01:49:58.739Z,14.07
2018-09-16T01:50:58.716Z,14.12
2018-09-16T01:51:58.701Z,14.03
2018-09-16T01:52:58.677Z,14.01
2018-09-16T01:53:58.659Z,13.94
2018-09-16T01:54:58.647Z,13.83
2018-09-16T01:55:58.623Z,13.87
2018-09-16T01:56:58.615Z,13.83
2018-09-16T01:57:58.587Z,13.76
2018-09-16T01:58:58.625Z,13.89
2018-09-16T01:59:58.554Z,13.76
2018-09-16T02:00:58.537Z,13.85
2018-09-16T02:01:58.514Z,13.76
2018-09-16T02:02:58.497Z,13.73
2018-09-16T02:03:58.492Z,13.76
2018-09-16T02:04:58.467Z,13.73
2018-09-16T02:05:58.446Z,13.73
2018-09-16T02:06:58.433Z,13.70
2018-09-16T02:07:58.410Z,13.75
2018-09-16T02:08:58.390Z,13.71
2018-09-16T02:09:58.374Z,13.71
2018-09-16T02:10:58.353Z,13.71
2018-09-16T02:11:58.335Z,13.57
2018-09-16T02:12:58.332Z,13.57
2018-09-16T02:13:58.303Z,13.61
2018-09-16T02:14:58.282Z,13.62
2018-09-16T02:15:58.273Z,13.58
2018-09-16T02:16:58.245Z,13.64
2018-09-16T02:17:58.229Z,13.57
2018-09-16T02:18:58.209Z,13.62
2018-09-16T02:19:58.192Z,13.60
2018-09-16T02:20:58.172Z,13.57
2018-09-16T02:21:58.153Z,13.68
2018-09-16T02:22:58.144Z,13.67
2018-09-16T02:23:58.118Z,13.70
2018-09-16T02:24:58.103Z,13.60
2018-09-16T02:25:58.093Z,13.71
2018-09-16T02:26:58.066Z,13.68
2018-09-16T02:27:58.046Z,13.76
2018-09-16T02:28:58.040Z,13.60
2018-09-16T02:29:58.016Z,13.64
2018-09-16T02:30:57.992Z,13.62
2018-09-16T02:31:57.971Z,13.58
2018-09-16T02:32:57.958Z,13.57
2018-09-16T02:33:57.938Z,13.62
2018-09-16T02:34:57.925Z,13.57
2018-09-16T02:35:57.901Z,13.55
2018-09-16T02:36:57.885Z,13.58
2018-09-16T02:37:57.872Z,13.62
2018-09-16T02:38:57.849Z,13.55
2018-09-16T02:39:57.835Z,13.60
2018-09-16T02:40:57.811Z,13.58
2018-09-16T02:41:57.792Z,13.55
2018-09-16T02:42:57.772Z,13.43
2018-09-16T02:43:57.754Z,13.40
2018-09-16T02:44:57.736Z,13.42
2018-09-16T02:45:57.717Z,13.57
2018-09-16T02:46:57.700Z,13.43
2018-09-16T02:47:57.717Z,13.50
2018-09-16T02:48:57.664Z,13.57
2018-09-16T02:49:57.646Z,13.55
2018-09-16T02:50:57.627Z,13.47
2018-09-16T02:51:57.612Z,13.49
2018-09-16T02:52:57.598Z,13.61
2018-09-16T02:53:57.577Z,13.61
2018-09-16T02:54:57.552Z,13.58
2018-09-16T02:55:57.542Z,13.57
2018-09-16T02:56:57.528Z,13.55
2018-09-16T02:57:57.504Z,13.62
2018-09-16T02:58:57.479Z,13.67
2018-09-16T02:59:57.463Z,13.55
2018-09-16T03:00:57.444Z,13.55
2018-09-16T03:01:57.426Z,13.52
2018-09-16T03:02:57.409Z,13.52
2018-09-16T03:03:57.534Z,13.57
2018-09-16T03:04:57.376Z,13.52
2018-09-16T03:05:57.356Z,13.54
2018-09-16T03:06:57.340Z,13.65
2018-09-16T03:07:57.327Z,13.52
2018-09-16T03:08:57.297Z,13.50
2018-09-16T03:09:57.280Z,13.40
2018-09-16T03:10:57.258Z,13.31
2018-09-16T03:11:57.352Z,13.45
2018-09-16T03:12:57.232Z,13.36
2018-09-16T03:13:57.204Z,13.55
2018-09-16T03:14:57.202Z,13.46
2018-09-16T03:15:57.168Z,13.42
2018-09-16T03:16:57.158Z,13.49
2018-09-16T03:17:57.140Z,13.47
2018-09-16T03:18:57.176Z,13.54
2018-09-16T03:19:57.096Z,13.45
2018-09-16T03:20:57.075Z,13.42
2018-09-16T03:21:57.057Z,13.42
2018-09-16T03:22:57.039Z,13.45
2018-09-16T03:23:57.021Z,13.45
2018-09-16T03:24:57.009Z,13.43
2018-09-16T03:25:56.992Z,13.46
2018-09-16T03:26:56.966Z,13.33
2018-09-16T03:27:56.947Z,13.42
2018-09-16T03:28:56.934Z,13.42
2018-09-16T03:29:56.913Z,13.45
2018-09-16T03:30:56.892Z,13.45
2018-09-16T03:31:56.878Z,13.39
2018-09-16T03:32:56.857Z,13.42
2018-09-16T03:33:57.003Z,13.40
2018-09-16T03:34:56.820Z,13.45
2018-09-16T03:35:56.799Z,13.45
2018-09-16T03:36:56.800Z,13.50
2018-09-16T03:37:56.764Z,13.43
2018-09-16T03:38:56.745Z,13.36
2018-09-16T03:39:56.726Z,13.43
2018-09-16T03:40:56.720Z,13.42
2018-09-16T03:41:56.694Z,13.39
2018-09-16T03:42:56.671Z,13.27
2018-09-16T03:43:56.662Z,13.33
2018-09-16T03:44:56.637Z,13.23
2018-09-16T03:45:56.619Z,13.21
2018-09-16T03:46:56.743Z,13.19
2018-09-16T03:47:56.580Z,13.19
2018-09-16T03:48:56.559Z,13.23
2018-09-16T03:49:56.561Z,13.19
2018-09-16T03:50:56.635Z,13.19
2018-09-16T03:51:56.504Z,13.17
2018-09-16T03:52:56.515Z,13.20
2018-09-16T03:53:56.468Z,13.23
2018-09-16T03:54:56.448Z,13.26
2018-09-16T03:55:56.438Z,13.24
2018-09-16T03:56:56.412Z,13.28
2018-09-16T03:57:56.396Z,13.21
2018-09-16T03:58:56.376Z,13.21
2018-09-16T03:59:56.355Z,13.27
2018-09-16T04:00:56.337Z,13.20
2018-09-16T04:01:56.323Z,13.26
2018-09-16T04:02:56.299Z,13.20
2018-09-16T04:03:56.296Z,13.19
2018-09-16T04:04:56.265Z,13.17
2018-09-16T04:05:56.245Z,13.11
2018-09-16T04:06:56.376Z,13.08
2018-09-16T04:07:56.210Z,13.03
2018-09-16T04:08:56.196Z,13.03
2018-09-16T04:09:56.221Z,12.88
2018-09-16T04:10:56.158Z,12.99
2018-09-16T04:11:56.139Z,12.94
2018-09-16T04:12:56.116Z,12.90
2018-09-16T04:13:56.219Z,12.87
2018-09-16T04:14:56.075Z,12.87
2018-09-16T04:15:56.060Z,12.86
2018-09-16T04:16:56.037Z,12.72
2018-09-16T04:17:56.019Z,12.83
2018-09-16T04:18:56.000Z,12.70
2018-09-16T04:19:55.986Z,12.66
2018-09-16T04:20:55.980Z,12.69
2018-09-16T04:21:55.957Z,12.63
2018-09-16T04:22:55.933Z,12.58
2018-09-16T04:23:55.912Z,12.51
2018-09-16T04:24:55.888Z,12.51
2018-09-16T04:25:55.907Z,12.53
2018-09-16T04:26:55.850Z,12.58
2018-09-16T04:27:55.834Z,12.51
2018-09-16T04:28:55.813Z,12.53
2018-09-16T04:29:55.797Z,12.44
2018-09-16T04:30:55.783Z,12.50
2018-09-16T04:31:55.770Z,12.48
2018-09-16T04:32:55.742Z,12.47
2018-09-16T04:33:55.719Z,12.53
2018-09-16T04:34:55.701Z,12.53
2018-09-16T04:35:55.681Z,12.55
2018-09-16T04:36:55.662Z,12.48
2018-09-16T04:37:55.649Z,12.47
2018-09-16T04:38:55.624Z,12.47
2018-09-16T04:39:55.658Z,12.47
2018-09-16T04:40:55.585Z,12.45
2018-09-16T04:41:55.572Z,12.44
2018-09-16T04:42:55.548Z,12.43
2018-09-16T04:43:55.532Z,12.39
2018-09-16T04:44:55.564Z,12.43
2018-09-16T04:45:55.494Z,12.53
2018-09-16T04:46:55.474Z,12.44
2018-09-16T04:47:55.454Z,12.47
2018-09-16T04:48:55.441Z,12.43
2018-09-16T04:50:55.800Z,12.51
2018-09-16T04:52:55.360Z,12.45
2018-09-16T04:53:55.341Z,12.50
2018-09-16T04:54:55.320Z,12.47
2018-09-16T04:55:55.385Z,12.40
2018-09-16T04:56:56.292Z,12.43
2018-09-16T04:59:55.231Z,12.36
2018-09-16T05:00:58.245Z,12.36
2018-09-16T05:01:56.211Z,12.33
2018-09-16T05:02:56.183Z,12.30
2018-09-16T05:03:55.150Z,12.33
2018-09-16T05:05:55.114Z,12.25
2018-09-16T05:06:55.094Z,12.30
2018-09-16T05:08:55.260Z,12.33
2018-09-16T05:09:55.036Z,12.40
2018-09-16T05:10:55.016Z,12.48
2018-09-16T05:11:54.998Z,12.44
2018-09-16T05:12:55.185Z,12.39
2018-09-16T05:13:54.960Z,12.44
2018-09-16T05:14:54.940Z,12.40
2018-09-16T05:15:54.926Z,12.48
2018-09-16T05:16:57.910Z,12.47
2018-09-16T05:18:54.862Z,12.40
2018-09-16T05:20:54.846Z,12.45
2018-09-16T05:22:54.794Z,12.43
2018-09-16T05:23:55.784Z,12.37
2018-09-16T05:25:54.732Z,12.44
2018-09-16T05:26:54.715Z,12.44
2018-09-16T05:27:54.695Z,12.37
2018-09-16T05:28:54.717Z,12.45
2018-09-16T05:29:54.661Z,12.40
2018-09-16T05:30:57.640Z,12.36
2018-09-16T05:31:55.749Z,12.50
2018-09-16T05:32:54.602Z,12.51
2018-09-16T05:33:54.584Z,12.54
2018-09-16T05:34:54.567Z,12.51
2018-09-16T05:36:54.525Z,12.53
2018-09-16T05:37:55.517Z,12.50
2018-09-16T05:39:54.471Z,12.61
2018-09-16T05:40:54.454Z,12.65
2018-09-16T05:41:54.431Z,12.61
2018-09-16T05:42:54.412Z,12.58
2018-09-16T05:43:54.399Z,12.53
2018-09-16T05:44:54.377Z,12.61
2018-09-16T05:45:54.355Z,12.54
2018-09-16T05:46:54.336Z,12.54
2018-09-16T05:47:54.322Z,12.58
2018-09-16T05:48:54.303Z,12.58
2018-09-16T05:49:54.286Z,12.53
2018-09-16T05:50:54.265Z,12.55
2018-09-16T05:51:54.251Z,12.54
2018-09-16T05:52:54.251Z,12.53
2018-09-16T05:53:54.265Z,12.53
2018-09-16T05:54:54.186Z,12.57
2018-09-16T05:55:54.179Z,12.65
2018-09-16T05:56:54.150Z,12.58
2018-09-16T05:57:54.131Z,12.61
2018-09-16T05:58:54.116Z,12.73
2018-09-16T05:59:54.093Z,12.80
2018-09-16T06:00:54.074Z,12.72
2018-09-16T06:01:54.056Z,12.76
2018-09-16T06:02:54.036Z,12.75
2018-09-16T06:03:54.026Z,12.78
2018-09-16T06:04:54.034Z,12.58
2018-09-16T06:05:53.988Z,12.58
2018-09-16T06:06:54.006Z,12.63
2018-09-16T06:07:53.942Z,12.62
2018-09-16T06:08:53.924Z,12.54
2018-09-16T06:09:53.905Z,12.61
2018-09-16T06:10:53.943Z,12.54
2018-09-16T06:11:53.868Z,12.54
2018-09-16T06:12:53.854Z,12.61
2018-09-16T06:13:53.829Z,12.63
2018-09-16T06:14:53.810Z,12.62
2018-09-16T06:15:53.795Z,12.58
2018-09-16T06:16:53.773Z,12.63
2018-09-16T06:17:53.754Z,12.65
2018-09-16T06:18:53.734Z,12.57
2018-09-16T06:19:53.715Z,12.72
2018-09-16T06:20:53.700Z,12.72
2018-09-16T06:21:53.687Z,12.66
2018-09-16T06:22:53.770Z,12.76
2018-09-16T06:23:53.642Z,12.78
2018-09-16T06:24:53.622Z,12.68
2018-09-16T06:25:53.604Z,12.58
2018-09-16T06:26:53.590Z,12.72
2018-09-16T06:27:53.569Z,12.58
2018-09-16T06:28:53.549Z,12.61
2018-09-16T06:29:53.533Z,12.73
2018-09-16T06:30:53.513Z,12.80
2018-09-16T06:31:53.494Z,12.72
2018-09-16T06:32:53.479Z,12.69
2018-09-16T06:33:53.460Z,12.75
2018-09-16T06:34:53.442Z,12.63
2018-09-16T06:35:53.414Z,12.78
2018-09-16T06:36:53.398Z,12.76
2018-09-16T06:37:53.377Z,12.81
2018-09-16T06:38:53.359Z,12.86
2018-09-16T06:39:53.401Z,12.87
2018-09-16T06:40:53.326Z,12.86
2018-09-16T06:41:53.308Z,12.87
2018-09-16T06:42:53.295Z,12.90
2018-09-16T06:43:53.267Z,12.86
2018-09-16T06:44:53.246Z,12.87
2018-09-16T06:45:53.298Z,12.88
2018-09-16T06:46:53.209Z,12.93
2018-09-16T06:47:53.190Z,12.95
2018-09-16T06:48:53.170Z,12.95
2018-09-16T06:49:53.162Z,12.98
2018-09-16T06:50:53.190Z,13.06
2018-09-16T06:51:53.112Z,13.06
2018-09-16T06:52:53.136Z,13.11
2018-09-16T06:53:53.074Z,13.20
2018-09-16T06:54:53.076Z,13.27
2018-09-16T06:55:53.036Z,13.33
2018-09-16T06:56:53.032Z,13.42
2018-09-16T06:57:52.997Z,13.49
2018-09-16T06:58:52.981Z,13.47
2018-09-16T06:59:52.961Z,13.67
2018-09-16T07:00:53.050Z,13.58
2018-09-16T07:01:52.930Z,13.57
2018-09-16T07:02:52.916Z,13.60
2018-09-16T07:03:52.892Z,13.73
2018-09-16T07:04:52.867Z,13.82
2018-09-16T07:05:52.862Z,13.86
2018-09-16T07:06:52.830Z,13.80
2018-09-16T07:07:52.812Z,13.85
2018-09-16T07:08:52.794Z,13.86
2018-09-16T07:09:52.886Z,14.00
2018-09-16T07:10:52.755Z,14.03
2018-09-16T07:11:52.741Z,14.01
2018-09-16T07:12:52.765Z,14.11
2018-09-16T07:13:52.700Z,14.05
2018-09-16T07:14:52.683Z,14.16
2018-09-16T07:15:52.665Z,14.15
2018-09-16T07:16:52.646Z,14.22
2018-09-16T07:17:52.627Z,14.33
2018-09-16T07:18:52.608Z,14.26
2018-09-16T07:19:52.589Z,14.38
2018-09-16T07:20:52.571Z,14.41
2018-09-16T07:21:52.555Z,14.41
2018-09-16T07:22:52.541Z,14.51
2018-09-16T07:23:52.515Z,14.48
2018-09-16T07:24:52.498Z,14.53
2018-09-16T07:25:52.479Z,14.58
2018-09-16T07:26:52.573Z,14.56
2018-09-16T07:27:52.444Z,14.59
2018-09-16T07:28:52.476Z,14.67
2018-09-16T07:29:52.408Z,14.77
2018-09-16T07:30:52.391Z,14.82
2018-09-16T07:31:52.449Z,14.90
2018-09-16T07:32:52.351Z,14.93
2018-09-16T07:33:52.367Z,15.10
2018-09-16T07:34:52.313Z,15.12
2018-09-16T07:35:52.297Z,15.18
2018-09-16T07:36:52.287Z,15.25
2018-09-16T07:37:52.266Z,15.23
2018-09-16T07:38:52.242Z,15.35
2018-09-16T07:39:52.223Z,15.41
2018-09-16T07:40:52.205Z,15.43
2018-09-16T07:41:52.186Z,15.54
2018-09-16T07:42:52.184Z,15.57
2018-09-16T07:43:52.181Z,15.67
2018-09-16T07:44:52.132Z,15.76
2018-09-16T07:45:52.119Z,15.84
2018-09-16T07:46:52.097Z,16.02
2018-09-16T07:47:52.081Z,16.05
2018-09-16T07:48:52.061Z,16.17
2018-09-16T07:49:52.046Z,16.10
2018-09-16T07:50:52.025Z,16.24
2018-09-16T07:51:52.017Z,16.25
2018-09-16T07:52:52.033Z,16.31
2018-09-16T07:53:51.976Z,16.51
2018-09-16T07:54:51.958Z,16.58
2018-09-16T07:55:51.949Z,16.76
2018-09-16T07:56:51.921Z,16.89
2018-09-16T07:57:51.914Z,16.83
2018-09-16T07:58:51.897Z,16.87
2018-09-16T07:59:51.881Z,16.95
2018-09-16T08:00:51.855Z,17.12
2018-09-16T08:01:51.891Z,17.19
2018-09-16T08:02:51.820Z,17.31
2018-09-16T08:03:51.804Z,17.23
2018-09-16T08:04:51.781Z,17.14
2018-09-16T08:05:51.763Z,17.05
2018-09-16T08:06:51.747Z,17.07
2018-09-16T08:07:51.731Z,17.10
2018-09-16T08:08:51.719Z,17.09
2018-09-16T08:09:51.698Z,17.14
2018-09-16T08:10:51.684Z,17.19
2018-09-16T08:11:51.677Z,17.30
2018-09-16T08:12:51.646Z,17.37
2018-09-16T08:13:51.743Z,17.46
2018-09-16T08:14:51.620Z,17.52
2018-09-16T08:15:51.599Z,17.72
2018-09-16T08:16:51.596Z,17.82
2018-09-16T08:17:51.721Z,17.86
2018-09-16T08:18:51.560Z,17.80
2018-09-16T08:19:51.529Z,17.80
2018-09-16T08:20:51.585Z,17.69
2018-09-16T08:21:51.496Z,17.78
2018-09-16T08:22:51.478Z,17.90
2018-09-16T08:23:51.464Z,17.91
2018-09-16T08:24:51.448Z,17.98
2018-09-16T08:25:51.449Z,18.09
2018-09-16T08:26:51.428Z,18.18
2018-09-16T08:27:51.400Z,18.27
2018-09-16T08:28:51.404Z,18.37
2018-09-16T08:29:51.373Z,18.33
2018-09-16T08:30:51.348Z,18.36
2018-09-16T08:31:51.336Z,18.46
2018-09-16T08:32:51.320Z,18.52
2018-09-16T08:33:51.299Z,18.51
2018-09-16T08:34:51.287Z,18.48
2018-09-16T08:35:51.274Z,18.70
2018-09-16T08:36:51.254Z,18.88
2018-09-16T08:37:51.272Z,18.96
2018-09-16T08:38:51.221Z,19.12
2018-09-16T08:39:51.205Z,19.27
2018-09-16T08:40:51.195Z,19.37
2018-09-16T08:41:51.176Z,19.45
2018-09-16T08:42:51.159Z,19.70
2018-09-16T08:43:51.146Z,19.63
2018-09-16T08:44:51.131Z,19.60
2018-09-16T08:45:51.121Z,19.62
2018-09-16T08:46:51.102Z,19.70
2018-09-16T08:47:51.236Z,19.67
2018-09-16T08:48:51.071Z,19.75
2018-09-16T08:49:51.064Z,19.74
2018-09-16T08:50:51.042Z,19.79
2018-09-16T08:51:51.028Z,19.79
2018-09-16T08:52:51.010Z,19.93
2018-09-16T08:53:50.994Z,19.94
2018-09-16T08:54:50.992Z,19.96
2018-09-16T08:55:50.967Z,19.96
2018-09-16T08:56:50.952Z,20.04
2018-09-16T08:57:50.935Z,20.07
2018-09-16T08:58:50.923Z,20.21
2018-09-16T08:59:50.908Z,20.42
2018-09-16T09:00:50.902Z,20.63
2018-09-16T09:01:50.881Z,20.86
2018-09-16T09:02:50.863Z,21.01
2018-09-16T09:03:50.850Z,21.07
2018-09-16T09:04:50.844Z,21.38
2018-09-16T09:05:50.829Z,21.50
2018-09-16T09:06:50.807Z,21.56
2018-09-16T09:07:50.804Z,21.65
2018-09-16T09:08:50.781Z,21.59
2018-09-16T09:09:50.771Z,21.66
2018-09-16T09:10:50.761Z,21.53
2018-09-16T09:11:50.742Z,21.51
2018-09-16T09:12:50.726Z,21.54
2018-09-16T09:14:34.345Z,21.50
2018-09-16T09:15:34.324Z,21.60
2018-09-16T09:16:34.318Z,21.59
2018-09-16T09:17:34.297Z,21.59
2018-09-16T09:18:34.283Z,21.69
2018-09-16T09:19:34.305Z,21.60
2018-09-16T09:20:34.268Z,21.59
2018-09-16T09:21:34.260Z,21.47
2018-09-16T09:22:34.230Z,21.43
2018-09-16T09:23:34.231Z,21.48
2018-09-16T09:24:34.210Z,21.53
2018-09-16T09:25:34.198Z,21.66
2018-09-16T09:26:34.181Z,21.80
2018-09-16T09:27:34.165Z,21.92
2018-09-16T09:28:34.157Z,21.91
2018-09-16T09:29:34.288Z,21.94
2018-09-16T09:30:34.123Z,22.23
2018-09-16T09:31:34.119Z,22.56
2018-09-16T09:32:34.100Z,22.92
2018-09-16T09:33:34.096Z,22.88
2018-09-16T09:34:34.073Z,22.71
2018-09-16T09:35:34.083Z,23.10
2018-09-16T09:36:34.053Z,23.69
2018-09-16T09:37:34.036Z,24.32
2018-09-16T09:38:34.026Z,24.65
2018-09-16T09:39:34.012Z,24.99
2018-09-16T09:40:34.002Z,25.06
2018-09-16T09:41:34.000Z,25.49
2018-09-16T09:42:34.024Z,25.51
2018-09-16T09:43:33.971Z,25.67
2018-09-16T09:44:33.969Z,25.22
2018-09-16T09:46:33.940Z,24.94
2018-09-16T09:47:33.945Z,25.11
2018-09-16T09:48:33.922Z,25.34
2018-09-16T09:49:34.334Z,25.16
2018-09-16T09:51:33.896Z,25.39
2018-09-16T09:52:33.888Z,25.30
2018-09-16T09:53:33.938Z,25.39
2018-09-16T09:54:33.872Z,25.43
2018-09-16T09:55:33.878Z,25.67
2018-09-16T09:56:33.855Z,26.07
2018-09-16T09:57:33.855Z,26.31
2018-09-16T09:58:33.847Z,26.59
2018-09-16T09:59:33.861Z,26.42
2018-09-16T10:00:33.826Z,26.71
2018-09-16T10:01:33.822Z,26.68
2018-09-16T10:02:33.827Z,26.29
2018-09-16T10:03:33.810Z,26.37
2018-09-16T10:04:33.801Z,26.13
2018-09-16T10:05:33.798Z,26.22
2018-09-16T10:06:33.878Z,26.23
2018-09-16T10:07:33.787Z,26.66
2018-09-16T10:08:33.782Z,27.11
2018-09-16T10:09:33.786Z,27.47
2018-09-16T10:10:37.620Z,27.95
2018-09-16T10:11:33.764Z,28.25
2018-09-16T10:12:33.764Z,28.22
2018-09-16T10:13:33.754Z,27.48
2018-09-16T10:14:33.859Z,26.79
2018-09-16T10:15:33.748Z,26.79
2018-09-16T10:16:33.746Z,26.49
2018-09-16T10:17:33.736Z,26.59
2018-09-16T10:18:33.735Z,26.45
2018-09-16T10:19:33.744Z,26.13
2018-09-16T10:20:33.729Z,26.44
2018-09-16T10:21:33.717Z,26.73
2018-09-16T10:22:33.716Z,27.00
2018-09-16T10:23:33.716Z,27.38
2018-09-16T10:24:33.703Z,27.55
2018-09-16T10:25:33.699Z,27.50
2018-09-16T10:26:33.702Z,27.52
2018-09-16T10:27:33.702Z,27.67
2018-09-16T10:28:33.704Z,27.93
2018-09-16T10:29:33.682Z,28.16
2018-09-16T10:30:33.694Z,27.76
2018-09-16T10:31:33.682Z,27.38
2018-09-16T10:32:33.694Z,27.07
2018-09-16T10:33:33.668Z,27.11
2018-09-16T10:34:33.670Z,27.23
2018-09-16T10:35:33.749Z,27.18
2018-09-16T10:36:33.664Z,26.81
2018-09-16T10:37:33.654Z,26.63
2018-09-16T10:38:33.787Z,26.55
2018-09-16T10:39:33.651Z,26.37
2018-09-16T10:40:33.640Z,26.37
2018-09-16T10:41:33.638Z,26.44
2018-09-16T10:42:33.636Z,26.31
2018-09-16T10:43:33.636Z,26.44
2018-09-16T10:44:33.626Z,26.44
2018-09-16T10:45:33.622Z,26.64
2018-09-16T10:46:33.616Z,26.88
2018-09-16T10:47:33.619Z,26.81
2018-09-16T10:48:33.607Z,26.64
2018-09-16T10:49:33.605Z,26.37
2018-09-16T10:50:33.602Z,25.91
2018-09-16T10:51:33.610Z,25.86
2018-09-16T10:52:33.599Z,25.62
2018-09-16T10:53:33.599Z,25.59
2018-09-16T10:54:33.616Z,25.41
2018-09-16T10:55:33.576Z,25.63
2018-09-16T10:56:33.571Z,25.67
2018-09-16T10:57:33.574Z,25.70
2018-09-16T10:58:33.566Z,25.89
2018-09-16T10:59:33.607Z,26.13
2018-09-16T11:00:33.561Z,26.19
2018-09-16T11:01:33.547Z,26.27
2018-09-16T11:02:33.542Z,26.26
2018-09-16T11:03:33.536Z,26.27
2018-09-16T11:04:33.532Z,26.19
2018-09-16T11:05:33.531Z,26.51
2018-09-16T11:06:33.533Z,26.81
2018-09-16T11:07:33.512Z,26.73
2018-09-16T11:08:33.509Z,27.03
2018-09-16T11:09:33.506Z,26.98
2018-09-16T11:10:33.495Z,27.03
2018-09-16T11:11:33.490Z,27.04
2018-09-16T11:12:33.485Z,27.10
2018-09-16T11:13:33.490Z,26.93
2018-09-16T11:14:33.478Z,26.74
2018-09-16T11:15:33.478Z,26.59
2018-09-16T11:16:33.463Z,26.37
2018-09-16T11:17:33.460Z,26.70
2018-09-16T11:18:33.453Z,26.53
2018-09-16T11:19:33.448Z,26.36
2018-09-16T11:20:33.445Z,26.70
2018-09-16T11:21:33.438Z,26.66
2018-09-16T11:22:33.429Z,26.73
2018-09-16T11:23:33.431Z,27.07
2018-09-16T11:24:33.419Z,27.47
2018-09-16T11:25:33.570Z,27.47
2018-09-16T11:26:33.409Z,27.28
2018-09-16T11:27:33.402Z,27.33
2018-09-16T11:28:33.405Z,27.04
2018-09-16T11:29:33.396Z,27.19
2018-09-16T11:30:33.393Z,27.60
2018-09-16T11:31:33.380Z,27.26
2018-09-16T11:32:33.375Z,27.01
2018-09-16T11:33:33.411Z,27.30
2018-09-16T11:34:33.363Z,27.34
2018-09-16T11:35:33.417Z,27.81
2018-09-16T11:36:33.357Z,27.79
2018-09-16T11:37:33.347Z,27.72
2018-09-16T11:38:33.346Z,27.53
2018-09-16T11:39:33.341Z,27.52
2018-09-16T11:40:33.333Z,27.16
2018-09-16T11:41:33.327Z,26.88
2018-09-16T11:42:33.322Z,26.76
2018-09-16T11:43:33.312Z,26.66
2018-09-16T11:44:33.307Z,26.27
2018-09-16T11:45:33.301Z,26.26
2018-09-16T11:46:33.296Z,26.19
2018-09-16T11:47:33.287Z,26.23
2018-09-16T11:49:33.328Z,26.07
2018-09-16T11:50:33.271Z,25.81
2018-09-16T11:51:33.301Z,25.63
2018-09-16T11:52:33.255Z,25.88
2018-09-16T11:53:33.249Z,25.77
2018-09-16T11:54:33.239Z,25.73
2018-09-16T11:55:33.231Z,25.98
2018-09-16T11:56:33.236Z,26.11
2018-09-16T11:57:33.216Z,26.18
2018-09-16T11:58:33.209Z,25.99
2018-09-16T11:59:33.451Z,25.76
2018-09-16T12:00:33.199Z,25.92
2018-09-16T12:01:33.188Z,26.01
2018-09-16T12:02:33.200Z,26.16
2018-09-16T12:03:33.168Z,26.33
2018-09-16T12:04:33.160Z,26.19
2018-09-16T12:05:33.160Z,26.16
2018-09-16T12:06:33.151Z,26.11
2018-09-16T12:08:27.281Z,26.04
2018-09-16T12:10:43.339Z,25.34
2018-09-16T12:11:43.324Z,25.18
2018-09-16T12:12:43.325Z,25.16
2018-09-16T12:13:43.306Z,25.04
2018-09-16T12:14:43.305Z,24.85
2018-09-16T12:15:43.910Z,24.62
2018-09-16T12:16:43.277Z,24.62
2018-09-16T12:17:43.268Z,24.65
2018-09-16T12:18:43.262Z,24.61
2018-09-16T12:19:43.248Z,24.61
2018-09-16T12:20:43.242Z,24.59
2018-09-16T12:21:43.238Z,24.47
2018-09-16T12:22:43.221Z,24.36
2018-09-16T12:23:43.213Z,24.31
2018-09-16T12:24:43.804Z,24.21
2018-09-16T12:25:43.245Z,24.16
2018-09-16T12:26:43.180Z,24.28
2018-09-16T12:27:43.170Z,24.28
2018-09-16T12:28:43.155Z,24.22
2018-09-16T12:29:43.147Z,24.40
2018-09-16T12:30:43.224Z,24.58
2018-09-16T12:31:43.124Z,24.55
2018-09-16T12:32:43.121Z,24.48
2018-09-16T12:33:43.124Z,24.53
2018-09-16T12:34:43.104Z,24.56
2018-09-16T12:35:43.090Z,24.29
2018-09-16T12:36:43.079Z,24.19
2018-09-16T12:37:43.066Z,24.28
2018-09-16T12:38:43.054Z,24.41
2018-09-16T12:39:43.039Z,24.58
2018-09-16T12:40:43.030Z,24.48
2018-09-16T12:41:43.026Z,24.46
2018-09-16T12:42:43.013Z,24.68
2018-09-16T12:43:42.997Z,24.61
2018-09-16T12:44:42.989Z,24.55
2018-09-16T12:45:42.974Z,24.50
2018-09-16T12:46:42.971Z,24.48
2018-09-16T12:47:42.969Z,24.48
2018-09-16T12:48:42.953Z,24.36
2018-09-16T12:49:42.932Z,24.34
2018-09-16T12:50:42.921Z,24.31
2018-09-16T12:51:42.914Z,24.11
2018-09-16T12:52:42.906Z,24.09
2018-09-16T12:53:42.886Z,24.16
2018-09-16T12:54:42.884Z,24.38
2018-09-16T12:55:42.871Z,24.37
2018-09-16T12:56:42.865Z,24.44
2018-09-16T12:57:42.852Z,24.56
2018-09-16T12:58:42.833Z,24.62
2018-09-16T12:59:42.830Z,24.43
2018-09-16T13:00:42.826Z,24.50
2018-09-16T13:01:42.809Z,24.43
2018-09-16T13:02:42.789Z,24.25
2018-09-16T13:03:42.778Z,24.13
2018-09-16T13:04:42.768Z,24.06
2018-09-16T13:05:42.755Z,24.16
2018-09-16T13:06:42.744Z,24.24
2018-09-16T13:07:42.737Z,24.36
2018-09-16T13:08:42.730Z,24.26
2018-09-16T13:09:42.713Z,24.43